Terminal Aerodrome Forecast
Issued by NWS

Home | Current Version | Previous Version | Text Only | Print | Product List | Glossary On
Versions: 1 2 3 4 5 6 7 8 9 10 11 12
000
FTUS45 KTFX 041130
TAFCTB
TAF
KCTB 041130Z 0412/0512 29009KT P6SM SCT120 BKN150
     FM041600 26017G27KT P6SM FEW070 SCT120
     FM050100 28009KT P6SM FEW080 SCT250=

USA.gov is the U.S. government's official web portal to all federal, state and local government web resources and services.